sensor_id;sensor_type;location;lat;lon;timestamp;P1;durP1;ratioP1;P2;durP2;ratioP2
56171;SDS011;42052;41.634;-0.946;2022-07-06T00:01:37;1.67;;;1.10;;
56171;SDS011;42052;41.634;-0.946;2022-07-06T00:04:04;1.25;;;0.95;;
56171;SDS011;42052;41.634;-0.946;2022-07-06T00:06:30;1.45;;;1.05;;
56171;SDS011;42052;41.634;-0.946;2022-07-06T00:08:56;1.25;;;1.00;;
56171;SDS011;42052;41.634;-0.946;2022-07-06T00:11:22;1.13;;;0.90;;
56171;SDS011;42052;41.634;-0.946;2022-07-06T00:13:49;2.13;;;1.00;;
56171;SDS011;42052;41.634;-0.946;2022-07-06T00:16:16;1.02;;;0.90;;
56171;SDS011;42052;41.634;-0.946;2022-07-06T00:18:42;1.75;;;1.02;;
56171;SDS011;42052;41.634;-0.946;2022-07-06T00:21:08;1.20;;;0.98;;
56171;SDS011;42052;41.634;-0.946;2022-07-06T00:23:34;1.13;;;1.00;;
56171;SDS011;42052;41.634;-0.946;2022-07-06T00:26:00;1.27;;;0.90;;
56171;SDS011;42052;41.634;-0.946;2022-07-06T00:28:26;1.70;;;0.98;;
56171;SDS011;42052;41.634;-0.946;2022-07-06T00:30:52;1.40;;;1.00;;
56171;SDS011;42052;41.634;-0.946;2022-07-06T00:33:18;1.83;;;1.10;;
56171;SDS011;42052;41.634;-0.946;2022-07-06T00:35:44;1.17;;;0.98;;
56171;SDS011;42052;41.634;-0.946;2022-07-06T00:38:10;1.83;;;1.00;;
56171;SDS011;42052;41.634;-0.946;2022-07-06T00:40:36;1.55;;;0.93;;
56171;SDS011;42052;41.634;-0.946;2022-07-06T00:43:02;2.00;;;0.80;;
56171;SDS011;42052;41.634;-0.946;2022-07-06T00:45:28;1.45;;;0.98;;
56171;SDS011;42052;41.634;-0.946;2022-07-06T00:47:54;1.17;;;0.90;;
56171;SDS011;42052;41.634;-0.946;2022-07-06T00:50:20;1.05;;;0.90;;
56171;SDS011;42052;41.634;-0.946;2022-07-06T00:52:57;2.08;;;1.10;;
56171;SDS011;42052;41.634;-0.946;2022-07-06T00:55:26;2.35;;;1.10;;
56171;SDS011;42052;41.634;-0.946;2022-07-06T00:57:54;4.78;;;0.90;;
56171;SDS011;42052;41.634;-0.946;2022-07-06T01:00:22;1.55;;;1.10;;
56171;SDS011;42052;41.634;-0.946;2022-07-06T01:02:50;1.33;;;1.00;;
56171;SDS011;42052;41.634;-0.946;2022-07-06T01:05:16;1.40;;;0.88;;
56171;SDS011;42052;41.634;-0.946;2022-07-06T01:07:43;1.35;;;0.90;;
56171;SDS011;42052;41.634;-0.946;2022-07-06T01:10:11;1.48;;;0.90;;
56171;SDS011;42052;41.634;-0.946;2022-07-06T01:12:40;1.33;;;0.80;;
56171;SDS011;42052;41.634;-0.946;2022-07-06T01:15:08;0.82;;;0.80;;
56171;SDS011;42052;41.634;-0.946;2022-07-06T01:17:37;1.58;;;1.00;;
56171;SDS011;42052;41.634;-0.946;2022-07-06T01:20:17;1.13;;;1.00;;
56171;SDS011;42052;41.634;-0.946;2022-07-06T01:22:44;1.63;;;0.90;;
56171;SDS011;42052;41.634;-0.946;2022-07-06T01:25:11;1.17;;;0.82;;
56171;SDS011;42052;41.634;-0.946;2022-07-06T01:27:38;1.25;;;0.88;;
56171;SDS011;42052;41.634;-0.946;2022-07-06T01:32:41;1.58;;;0.93;;
56171;SDS011;42052;41.634;-0.946;2022-07-06T01:35:08;1.27;;;0.95;;
56171;SDS011;42052;41.634;-0.946;2022-07-06T01:37:36;2.95;;;1.10;;
56171;SDS011;42052;41.634;-0.946;2022-07-06T01:40:03;2.33;;;1.00;;
56171;SDS011;42052;41.634;-0.946;2022-07-06T01:42:31;2.10;;;1.20;;
56171;SDS011;42052;41.634;-0.946;2022-07-06T01:44:57;1.67;;;1.00;;
56171;SDS011;42052;41.634;-0.946;2022-07-06T01:47:23;1.38;;;0.98;;
56171;SDS011;42052;41.634;-0.946;2022-07-06T01:49:49;1.40;;;1.00;;
56171;SDS011;42052;41.634;-0.946;2022-07-06T01:52:15;1.00;;;0.90;;
56171;SDS011;42052;41.634;-0.946;2022-07-06T01:54:41;1.42;;;0.80;;
56171;SDS011;42052;41.634;-0.946;2022-07-06T01:57:07;1.38;;;1.05;;
56171;SDS011;42052;41.634;-0.946;2022-07-06T01:59:33;1.73;;;1.02;;
56171;SDS011;42052;41.634;-0.946;2022-07-06T02:01:59;1.10;;;1.00;;
56171;SDS011;42052;41.634;-0.946;2022-07-06T02:04:25;1.13;;;1.00;;
56171;SDS011;42052;41.634;-0.946;2022-07-06T02:06:51;1.55;;;1.10;;
56171;SDS011;42052;41.634;-0.946;2022-07-06T02:09:17;1.30;;;0.82;;
56171;SDS011;42052;41.634;-0.946;2022-07-06T02:11:43;1.23;;;0.90;;
56171;SDS011;42052;41.634;-0.946;2022-07-06T02:14:09;1.15;;;0.90;;
56171;SDS011;42052;41.634;-0.946;2022-07-06T02:16:35;1.27;;;0.90;;
56171;SDS011;42052;41.634;-0.946;2022-07-06T02:19:01;2.08;;;0.80;;
56171;SDS011;42052;41.634;-0.946;2022-07-06T02:21:26;0.90;;;0.80;;
56171;SDS011;42052;41.634;-0.946;2022-07-06T02:23:52;1.33;;;0.90;;
56171;SDS011;42052;41.634;-0.946;2022-07-06T02:26:18;1.08;;;0.82;;
56171;SDS011;42052;41.634;-0.946;2022-07-06T02:28:44;1.35;;;0.80;;
56171;SDS011;42052;41.634;-0.946;2022-07-06T02:31:13;2.13;;;1.00;;
56171;SDS011;42052;41.634;-0.946;2022-07-06T02:33:40;1.40;;;0.80;;
56171;SDS011;42052;41.634;-0.946;2022-07-06T02:36:06;1.15;;;0.85;;
56171;SDS011;42052;41.634;-0.946;2022-07-06T02:38:32;1.77;;;1.00;;
56171;SDS011;42052;41.634;-0.946;2022-07-06T02:40:58;1.08;;;0.93;;
56171;SDS011;42052;41.634;-0.946;2022-07-06T02:43:24;1.52;;;0.90;;
56171;SDS011;42052;41.634;-0.946;2022-07-06T02:45:50;1.58;;;0.80;;
56171;SDS011;42052;41.634;-0.946;2022-07-06T02:48:16;2.67;;;0.80;;
56171;SDS011;42052;41.634;-0.946;2022-07-06T02:50:42;1.60;;;1.00;;
56171;SDS011;42052;41.634;-0.946;2022-07-06T02:53:08;9.05;;;2.28;;
56171;SDS011;42052;41.634;-0.946;2022-07-06T02:55:34;13.63;;;2.45;;
56171;SDS011;42052;41.634;-0.946;2022-07-06T02:58:00;11.40;;;2.25;;
56171;SDS011;42052;41.634;-0.946;2022-07-06T03:00:26;29.02;;;4.70;;
56171;SDS011;42052;41.634;-0.946;2022-07-06T03:02:51;23.35;;;4.70;;
56171;SDS011;42052;41.634;-0.946;2022-07-06T03:05:17;30.52;;;6.22;;
56171;SDS011;42052;41.634;-0.946;2022-07-06T03:07:43;26.75;;;5.45;;
56171;SDS011;42052;41.634;-0.946;2022-07-06T03:10:09;31.00;;;5.78;;
56171;SDS011;42052;41.634;-0.946;2022-07-06T03:12:35;25.48;;;5.63;;
56171;SDS011;42052;41.634;-0.946;2022-07-06T03:15:01;24.13;;;5.35;;
56171;SDS011;42052;41.634;-0.946;2022-07-06T03:17:27;28.63;;;5.22;;
56171;SDS011;42052;41.634;-0.946;2022-07-06T03:19:52;25.70;;;5.43;;
56171;SDS011;42052;41.634;-0.946;2022-07-06T03:22:18;18.67;;;5.00;;
56171;SDS011;42052;41.634;-0.946;2022-07-06T03:24:44;23.70;;;4.70;;
56171;SDS011;42052;41.634;-0.946;2022-07-06T03:27:10;26.33;;;5.43;;
56171;SDS011;42052;41.634;-0.946;2022-07-06T03:29:36;17.13;;;4.47;;
56171;SDS011;42052;41.634;-0.946;2022-07-06T03:32:01;20.80;;;4.72;;
56171;SDS011;42052;41.634;-0.946;2022-07-06T03:34:28;23.13;;;4.80;;
56171;SDS011;42052;41.634;-0.946;2022-07-06T03:36:53;21.20;;;4.80;;
56171;SDS011;42052;41.634;-0.946;2022-07-06T03:39:19;19.65;;;4.97;;
56171;SDS011;42052;41.634;-0.946;2022-07-06T03:41:45;20.45;;;5.03;;
56171;SDS011;42052;41.634;-0.946;2022-07-06T03:44:11;17.67;;;4.60;;
56171;SDS011;42052;41.634;-0.946;2022-07-06T03:46:37;18.33;;;4.65;;
56171;SDS011;42052;41.634;-0.946;2022-07-06T03:49:03;17.13;;;4.82;;
56171;SDS011;42052;41.634;-0.946;2022-07-06T03:51:28;17.60;;;4.78;;
56171;SDS011;42052;41.634;-0.946;2022-07-06T03:53:54;18.60;;;4.43;;
56171;SDS011;42052;41.634;-0.946;2022-07-06T03:56:20;17.95;;;4.57;;
56171;SDS011;42052;41.634;-0.946;2022-07-06T03:58:58;13.77;;;4.38;;
56171;SDS011;42052;41.634;-0.946;2022-07-06T04:01:26;21.80;;;4.35;;
56171;SDS011;42052;41.634;-0.946;2022-07-06T04:03:52;17.05;;;4.50;;
56171;SDS011;42052;41.634;-0.946;2022-07-06T04:06:18;15.88;;;4.20;;
56171;SDS011;42052;41.634;-0.946;2022-07-06T04:08:44;18.75;;;3.97;;
56171;SDS011;42052;41.634;-0.946;2022-07-06T04:11:10;14.60;;;4.07;;
56171;SDS011;42052;41.634;-0.946;2022-07-06T04:13:36;13.27;;;3.70;;
56171;SDS011;42052;41.634;-0.946;2022-07-06T04:16:04;15.15;;;4.15;;
56171;SDS011;42052;41.634;-0.946;2022-07-06T04:18:31;12.45;;;3.65;;
56171;SDS011;42052;41.634;-0.946;2022-07-06T04:20:57;12.93;;;3.65;;
56171;SDS011;42052;41.634;-0.946;2022-07-06T04:23:23;12.65;;;3.42;;
56171;SDS011;42052;41.634;-0.946;2022-07-06T04:25:50;14.52;;;3.78;;
56171;SDS011;42052;41.634;-0.946;2022-07-06T04:28:16;12.90;;;3.60;;
56171;SDS011;42052;41.634;-0.946;2022-07-06T04:30:42;13.95;;;4.10;;
56171;SDS011;42052;41.634;-0.946;2022-07-06T04:33:08;13.70;;;3.55;;
56171;SDS011;42052;41.634;-0.946;2022-07-06T04:35:34;12.32;;;3.70;;
56171;SDS011;42052;41.634;-0.946;2022-07-06T04:38:00;14.88;;;3.38;;
56171;SDS011;42052;41.634;-0.946;2022-07-06T04:40:26;11.50;;;3.60;;
56171;SDS011;42052;41.634;-0.946;2022-07-06T04:42:52;12.38;;;3.53;;
56171;SDS011;42052;41.634;-0.946;2022-07-06T04:45:18;11.90;;;3.63;;
56171;SDS011;42052;41.634;-0.946;2022-07-06T04:47:44;12.02;;;3.53;;
56171;SDS011;42052;41.634;-0.946;2022-07-06T04:50:10;11.07;;;3.30;;
56171;SDS011;42052;41.634;-0.946;2022-07-06T04:52:37;10.27;;;2.92;;
56171;SDS011;42052;41.634;-0.946;2022-07-06T04:55:03;10.95;;;3.55;;
56171;SDS011;42052;41.634;-0.946;2022-07-06T04:57:31;8.38;;;3.10;;
56171;SDS011;42052;41.634;-0.946;2022-07-06T04:59:57;10.57;;;2.85;;
56171;SDS011;42052;41.634;-0.946;2022-07-06T05:02:23;10.25;;;3.15;;
56171;SDS011;42052;41.634;-0.946;2022-07-06T05:04:49;8.07;;;3.25;;
56171;SDS011;42052;41.634;-0.946;2022-07-06T05:07:15;10.50;;;2.90;;
56171;SDS011;42052;41.634;-0.946;2022-07-06T05:09:41;8.07;;;3.20;;
56171;SDS011;42052;41.634;-0.946;2022-07-06T05:12:07;11.43;;;3.25;;
56171;SDS011;42052;41.634;-0.946;2022-07-06T05:14:33;8.75;;;3.08;;
56171;SDS011;42052;41.634;-0.946;2022-07-06T05:16:59;7.28;;;2.78;;
56171;SDS011;42052;41.634;-0.946;2022-07-06T05:19:25;6.85;;;2.92;;
56171;SDS011;42052;41.634;-0.946;2022-07-06T05:21:51;10.80;;;2.90;;
56171;SDS011;42052;41.634;-0.946;2022-07-06T05:24:16;9.07;;;2.88;;
56171;SDS011;42052;41.634;-0.946;2022-07-06T05:26:44;9.55;;;2.90;;
56171;SDS011;42052;41.634;-0.946;2022-07-06T05:29:10;9.65;;;3.00;;
56171;SDS011;42052;41.634;-0.946;2022-07-06T05:31:35;9.27;;;3.03;;
56171;SDS011;42052;41.634;-0.946;2022-07-06T05:34:01;8.90;;;3.15;;
56171;SDS011;42052;41.634;-0.946;2022-07-06T05:36:27;6.75;;;2.40;;
56171;SDS011;42052;41.634;-0.946;2022-07-06T05:38:53;6.43;;;2.40;;
56171;SDS011;42052;41.634;-0.946;2022-07-06T05:41:19;7.10;;;2.53;;
56171;SDS011;42052;41.634;-0.946;2022-07-06T05:43:45;7.53;;;2.47;;
56171;SDS011;42052;41.634;-0.946;2022-07-06T05:46:11;8.77;;;2.92;;
56171;SDS011;42052;41.634;-0.946;2022-07-06T05:48:36;7.03;;;2.58;;
56171;SDS011;42052;41.634;-0.946;2022-07-06T05:51:21;5.40;;;2.22;;
56171;SDS011;42052;41.634;-0.946;2022-07-06T05:53:47;7.40;;;2.45;;
56171;SDS011;42052;41.634;-0.946;2022-07-06T05:56:13;7.90;;;2.45;;
56171;SDS011;42052;41.634;-0.946;2022-07-06T05:58:39;5.90;;;2.13;;
56171;SDS011;42052;41.634;-0.946;2022-07-06T06:01:05;8.02;;;2.42;;
56171;SDS011;42052;41.634;-0.946;2022-07-06T06:03:32;6.97;;;2.40;;
56171;SDS011;42052;41.634;-0.946;2022-07-06T06:05:58;7.55;;;2.67;;
56171;SDS011;42052;41.634;-0.946;2022-07-06T06:08:25;6.13;;;2.15;;
56171;SDS011;42052;41.634;-0.946;2022-07-06T06:10:51;5.30;;;2.13;;
56171;SDS011;42052;41.634;-0.946;2022-07-06T06:13:17;4.55;;;2.15;;
56171;SDS011;42052;41.634;-0.946;2022-07-06T06:15:44;6.15;;;2.30;;
56171;SDS011;42052;41.634;-0.946;2022-07-06T06:18:10;7.82;;;2.30;;
56171;SDS011;42052;41.634;-0.946;2022-07-06T06:20:35;6.32;;;2.42;;
56171;SDS011;42052;41.634;-0.946;2022-07-06T06:23:01;4.63;;;1.92;;
56171;SDS011;42052;41.634;-0.946;2022-07-06T06:25:33;4.88;;;2.03;;
56171;SDS011;42052;41.634;-0.946;2022-07-06T06:28:01;5.68;;;2.35;;
56171;SDS011;42052;41.634;-0.946;2022-07-06T06:30:31;5.60;;;2.10;;
56171;SDS011;42052;41.634;-0.946;2022-07-06T06:33:30;6.53;;;2.47;;
56171;SDS011;42052;41.634;-0.946;2022-07-06T06:35:50;5.68;;;2.13;;
56171;SDS011;42052;41.634;-0.946;2022-07-06T06:38:19;6.40;;;2.17;;
56171;SDS011;42052;41.634;-0.946;2022-07-06T06:40:47;8.30;;;2.22;;
56171;SDS011;42052;41.634;-0.946;2022-07-06T06:43:13;6.38;;;2.20;;
56171;SDS011;42052;41.634;-0.946;2022-07-06T06:45:39;7.35;;;2.10;;
56171;SDS011;42052;41.634;-0.946;2022-07-06T06:48:05;6.57;;;2.20;;
56171;SDS011;42052;41.634;-0.946;2022-07-06T06:50:31;4.10;;;1.70;;
56171;SDS011;42052;41.634;-0.946;2022-07-06T06:52:57;5.78;;;2.00;;
56171;SDS011;42052;41.634;-0.946;2022-07-06T06:55:24;4.03;;;1.85;;
56171;SDS011;42052;41.634;-0.946;2022-07-06T06:57:50;4.80;;;1.90;;
56171;SDS011;42052;41.634;-0.946;2022-07-06T07:00:16;6.15;;;2.25;;
56171;SDS011;42052;41.634;-0.946;2022-07-06T07:02:42;5.78;;;1.88;;
56171;SDS011;42052;41.634;-0.946;2022-07-06T07:05:08;4.22;;;1.90;;
56171;SDS011;42052;41.634;-0.946;2022-07-06T07:07:34;4.10;;;1.73;;
56171;SDS011;42052;41.634;-0.946;2022-07-06T07:10:01;3.95;;;1.90;;
56171;SDS011;42052;41.634;-0.946;2022-07-06T07:12:28;4.47;;;1.63;;
56171;SDS011;42052;41.634;-0.946;2022-07-06T07:14:54;3.92;;;1.90;;
56171;SDS011;42052;41.634;-0.946;2022-07-06T07:17:20;4.07;;;1.90;;
56171;SDS011;42052;41.634;-0.946;2022-07-06T07:19:46;8.45;;;2.40;;
56171;SDS011;42052;41.634;-0.946;2022-07-06T07:22:12;3.88;;;1.90;;
56171;SDS011;42052;41.634;-0.946;2022-07-06T07:24:37;3.40;;;1.90;;
56171;SDS011;42052;41.634;-0.946;2022-07-06T07:27:03;4.07;;;1.70;;
56171;SDS011;42052;41.634;-0.946;2022-07-06T07:29:30;5.00;;;1.90;;
56171;SDS011;42052;41.634;-0.946;2022-07-06T07:31:56;5.00;;;1.80;;
56171;SDS011;42052;41.634;-0.946;2022-07-06T07:34:22;3.95;;;1.73;;
56171;SDS011;42052;41.634;-0.946;2022-07-06T07:36:47;4.78;;;1.83;;
56171;SDS011;42052;41.634;-0.946;2022-07-06T07:39:13;4.47;;;1.92;;
56171;SDS011;42052;41.634;-0.946;2022-07-06T07:41:39;7.28;;;2.08;;
56171;SDS011;42052;41.634;-0.946;2022-07-06T07:44:05;4.15;;;2.00;;
56171;SDS011;42052;41.634;-0.946;2022-07-06T07:46:31;4.70;;;1.92;;
56171;SDS011;42052;41.634;-0.946;2022-07-06T07:48:56;2.75;;;1.67;;
56171;SDS011;42052;41.634;-0.946;2022-07-06T07:51:22;5.53;;;1.80;;
56171;SDS011;42052;41.634;-0.946;2022-07-06T07:53:48;3.58;;;1.63;;
56171;SDS011;42052;41.634;-0.946;2022-07-06T07:56:14;4.80;;;1.80;;
56171;SDS011;42052;41.634;-0.946;2022-07-06T07:58:40;3.92;;;1.83;;
56171;SDS011;42052;41.634;-0.946;2022-07-06T08:01:05;4.03;;;1.80;;
56171;SDS011;42052;41.634;-0.946;2022-07-06T08:03:31;4.05;;;1.95;;
56171;SDS011;42052;41.634;-0.946;2022-07-06T08:05:57;3.97;;;1.80;;
56171;SDS011;42052;41.634;-0.946;2022-07-06T08:08:23;3.95;;;1.63;;
56171;SDS011;42052;41.634;-0.946;2022-07-06T08:10:49;4.32;;;1.52;;
56171;SDS011;42052;41.634;-0.946;2022-07-06T08:13:15;3.33;;;1.60;;
56171;SDS011;42052;41.634;-0.946;2022-07-06T08:15:41;4.10;;;1.63;;
56171;SDS011;42052;41.634;-0.946;2022-07-06T08:18:08;3.08;;;1.42;;
56171;SDS011;42052;41.634;-0.946;2022-07-06T08:20:35;2.63;;;1.35;;
56171;SDS011;42052;41.634;-0.946;2022-07-06T08:23:01;3.67;;;1.40;;
56171;SDS011;42052;41.634;-0.946;2022-07-06T08:25:28;3.22;;;1.65;;
56171;SDS011;42052;41.634;-0.946;2022-07-06T08:27:54;5.72;;;1.80;;
56171;SDS011;42052;41.634;-0.946;2022-07-06T08:30:20;2.95;;;1.50;;
56171;SDS011;42052;41.634;-0.946;2022-07-06T08:32:45;6.00;;;1.80;;
56171;SDS011;42052;41.634;-0.946;2022-07-06T08:35:11;2.83;;;1.48;;
56171;SDS011;42052;41.634;-0.946;2022-07-06T08:37:37;3.20;;;1.67;;
56171;SDS011;42052;41.634;-0.946;2022-07-06T08:40:04;2.65;;;1.60;;
56171;SDS011;42052;41.634;-0.946;2022-07-06T08:42:31;3.80;;;1.90;;
56171;SDS011;42052;41.634;-0.946;2022-07-06T08:44:59;3.70;;;1.77;;
56171;SDS011;42052;41.634;-0.946;2022-07-06T08:47:26;4.47;;;1.67;;
56171;SDS011;42052;41.634;-0.946;2022-07-06T08:49:53;3.40;;;1.58;;
56171;SDS011;42052;41.634;-0.946;2022-07-06T08:52:19;3.97;;;1.60;;
56171;SDS011;42052;41.634;-0.946;2022-07-06T08:54:46;2.97;;;1.50;;
56171;SDS011;42052;41.634;-0.946;2022-07-06T08:57:12;2.88;;;1.75;;
56171;SDS011;42052;41.634;-0.946;2022-07-06T08:59:39;2.97;;;1.48;;
56171;SDS011;42052;41.634;-0.946;2022-07-06T09:02:05;3.17;;;1.48;;
56171;SDS011;42052;41.634;-0.946;2022-07-06T09:04:32;4.70;;;1.55;;
56171;SDS011;42052;41.634;-0.946;2022-07-06T09:07:00;3.50;;;1.60;;
56171;SDS011;42052;41.634;-0.946;2022-07-06T09:09:26;3.17;;;1.30;;
56171;SDS011;42052;41.634;-0.946;2022-07-06T09:11:56;3.80;;;1.42;;
56171;SDS011;42052;41.634;-0.946;2022-07-06T09:14:22;5.70;;;1.45;;
56171;SDS011;42052;41.634;-0.946;2022-07-06T09:16:52;2.53;;;1.30;;
56171;SDS011;42052;41.634;-0.946;2022-07-06T09:19:28;3.28;;;1.50;;
56171;SDS011;42052;41.634;-0.946;2022-07-06T09:21:56;2.42;;;1.35;;
56171;SDS011;42052;41.634;-0.946;2022-07-06T09:24:22;2.20;;;1.35;;
56171;SDS011;42052;41.634;-0.946;2022-07-06T09:26:48;3.78;;;1.63;;
56171;SDS011;42052;41.634;-0.946;2022-07-06T09:29:14;3.50;;;1.27;;
56171;SDS011;42052;41.634;-0.946;2022-07-06T09:31:40;2.90;;;1.50;;
56171;SDS011;42052;41.634;-0.946;2022-07-06T09:34:06;3.33;;;1.50;;
56171;SDS011;42052;41.634;-0.946;2022-07-06T09:36:42;2.83;;;1.52;;
56171;SDS011;42052;41.634;-0.946;2022-07-06T09:39:16;3.30;;;1.30;;
56171;SDS011;42052;41.634;-0.946;2022-07-06T09:46:59;3.70;;;1.40;;
56171;SDS011;42052;41.634;-0.946;2022-07-06T09:49:26;2.70;;;1.30;;
56171;SDS011;42052;41.634;-0.946;2022-07-06T09:51:54;2.83;;;1.33;;
56171;SDS011;42052;41.634;-0.946;2022-07-06T09:54:21;2.97;;;1.48;;
56171;SDS011;42052;41.634;-0.946;2022-07-06T09:56:47;2.05;;;1.20;;
56171;SDS011;42052;41.634;-0.946;2022-07-06T09:59:21;5.60;;;1.65;;
56171;SDS011;42052;41.634;-0.946;2022-07-06T10:01:53;3.80;;;1.30;;
56171;SDS011;42052;41.634;-0.946;2022-07-06T10:04:21;2.05;;;1.25;;
56171;SDS011;42052;41.634;-0.946;2022-07-06T10:06:48;2.53;;;1.30;;
56171;SDS011;42052;41.634;-0.946;2022-07-06T10:09:15;2.13;;;1.30;;
56171;SDS011;42052;41.634;-0.946;2022-07-06T10:11:53;3.78;;;1.23;;
56171;SDS011;42052;41.634;-0.946;2022-07-06T10:14:23;4.00;;;1.40;;
56171;SDS011;42052;41.634;-0.946;2022-07-06T10:16:50;2.35;;;1.38;;
56171;SDS011;42052;41.634;-0.946;2022-07-06T10:19:17;2.58;;;1.25;;
56171;SDS011;42052;41.634;-0.946;2022-07-06T10:21:45;2.78;;;1.30;;
56171;SDS011;42052;41.634;-0.946;2022-07-06T10:24:11;2.63;;;1.38;;
56171;SDS011;42052;41.634;-0.946;2022-07-06T10:26:38;2.90;;;1.50;;
56171;SDS011;42052;41.634;-0.946;2022-07-06T10:29:05;4.00;;;1.48;;
56171;SDS011;42052;41.634;-0.946;2022-07-06T10:31:32;2.78;;;1.45;;
56171;SDS011;42052;41.634;-0.946;2022-07-06T10:34:01;2.50;;;1.30;;
56171;SDS011;42052;41.634;-0.946;2022-07-06T10:36:31;2.92;;;1.27;;
56171;SDS011;42052;41.634;-0.946;2022-07-06T10:39:01;4.05;;;1.40;;
56171;SDS011;42052;41.634;-0.946;2022-07-06T10:41:47;4.68;;;1.80;;
56171;SDS011;42052;41.634;-0.946;2022-07-06T10:44:23;2.22;;;1.30;;
56171;SDS011;42052;41.634;-0.946;2022-07-06T10:46:51;2.85;;;1.30;;
56171;SDS011;42052;41.634;-0.946;2022-07-06T10:49:21;2.85;;;1.33;;
56171;SDS011;42052;41.634;-0.946;2022-07-06T10:51:48;2.83;;;1.40;;
56171;SDS011;42052;41.634;-0.946;2022-07-06T10:54:15;2.25;;;1.23;;
56171;SDS011;42052;41.634;-0.946;2022-07-06T10:56:42;1.88;;;1.15;;
56171;SDS011;42052;41.634;-0.946;2022-07-06T11:04:38;2.80;;;1.40;;
56171;SDS011;42052;41.634;-0.946;2022-07-06T11:07:08;3.58;;;1.38;;
56171;SDS011;42052;41.634;-0.946;2022-07-06T11:09:53;2.63;;;1.30;;
56171;SDS011;42052;41.634;-0.946;2022-07-06T11:12:23;2.45;;;1.23;;
56171;SDS011;42052;41.634;-0.946;2022-07-06T11:14:50;2.85;;;1.30;;
56171;SDS011;42052;41.634;-0.946;2022-07-06T11:17:18;5.03;;;1.40;;
56171;SDS011;42052;41.634;-0.946;2022-07-06T11:20:08;4.28;;;1.38;;
56171;SDS011;42052;41.634;-0.946;2022-07-06T11:22:36;4.03;;;1.52;;
56171;SDS011;42052;41.634;-0.946;2022-07-06T11:25:03;2.38;;;1.30;;
56171;SDS011;42052;41.634;-0.946;2022-07-06T11:27:30;3.88;;;1.35;;
56171;SDS011;42052;41.634;-0.946;2022-07-06T11:29:56;2.65;;;1.30;;
56171;SDS011;42052;41.634;-0.946;2022-07-06T11:32:23;3.22;;;1.30;;
56171;SDS011;42052;41.634;-0.946;2022-07-06T11:34:50;4.22;;;1.50;;
56171;SDS011;42052;41.634;-0.946;2022-07-06T11:37:16;2.85;;;1.30;;
56171;SDS011;42052;41.634;-0.946;2022-07-06T11:39:46;2.78;;;1.38;;
56171;SDS011;42052;41.634;-0.946;2022-07-06T11:42:16;3.50;;;1.58;;
56171;SDS011;42052;41.634;-0.946;2022-07-06T11:44:44;3.78;;;1.42;;
56171;SDS011;42052;41.634;-0.946;2022-07-06T11:47:11;4.10;;;1.40;;
56171;SDS011;42052;41.634;-0.946;2022-07-06T11:49:38;4.53;;;1.77;;
56171;SDS011;42052;41.634;-0.946;2022-07-06T11:52:09;3.53;;;1.50;;
56171;SDS011;42052;41.634;-0.946;2022-07-06T11:54:36;4.35;;;1.88;;
56171;SDS011;42052;41.634;-0.946;2022-07-06T11:57:02;5.30;;;1.60;;
56171;SDS011;42052;41.634;-0.946;2022-07-06T11:59:32;3.00;;;1.20;;
56171;SDS011;42052;41.634;-0.946;2022-07-06T12:02:00;3.65;;;1.60;;
56171;SDS011;42052;41.634;-0.946;2022-07-06T12:04:28;3.42;;;1.30;;
56171;SDS011;42052;41.634;-0.946;2022-07-06T12:06:55;2.58;;;1.52;;
56171;SDS011;42052;41.634;-0.946;2022-07-06T12:09:24;2.80;;;1.50;;
56171;SDS011;42052;41.634;-0.946;2022-07-06T12:11:50;2.90;;;1.50;;
56171;SDS011;42052;41.634;-0.946;2022-07-06T12:14:17;4.75;;;1.40;;
56171;SDS011;42052;41.634;-0.946;2022-07-06T12:16:46;2.92;;;1.38;;
56171;SDS011;42052;41.634;-0.946;2022-07-06T12:19:13;2.42;;;1.40;;
56171;SDS011;42052;41.634;-0.946;2022-07-06T12:21:44;3.33;;;1.30;;
56171;SDS011;42052;41.634;-0.946;2022-07-06T12:24:21;2.88;;;1.30;;
56171;SDS011;42052;41.634;-0.946;2022-07-06T12:27:11;5.20;;;1.85;;
56171;SDS011;42052;41.634;-0.946;2022-07-06T12:29:41;2.60;;;1.50;;
56171;SDS011;42052;41.634;-0.946;2022-07-06T12:32:13;3.53;;;1.33;;
56171;SDS011;42052;41.634;-0.946;2022-07-06T12:34:43;3.58;;;1.30;;
56171;SDS011;42052;41.634;-0.946;2022-07-06T12:37:09;3.05;;;1.50;;
56171;SDS011;42052;41.634;-0.946;2022-07-06T12:39:44;3.63;;;1.50;;
56171;SDS011;42052;41.634;-0.946;2022-07-06T12:42:13;3.05;;;1.55;;
56171;SDS011;42052;41.634;-0.946;2022-07-06T12:44:44;3.05;;;1.30;;
56171;SDS011;42052;41.634;-0.946;2022-07-06T12:47:17;3.72;;;1.50;;
56171;SDS011;42052;41.634;-0.946;2022-07-06T12:49:48;2.85;;;1.45;;
56171;SDS011;42052;41.634;-0.946;2022-07-06T12:52:29;2.15;;;1.30;;
56171;SDS011;42052;41.634;-0.946;2022-07-06T12:54:55;3.25;;;1.50;;
56171;SDS011;42052;41.634;-0.946;2022-07-06T12:57:25;3.30;;;1.40;;
56171;SDS011;42052;41.634;-0.946;2022-07-06T13:02:25;2.88;;;1.40;;
56171;SDS011;42052;41.634;-0.946;2022-07-06T13:07:28;2.30;;;1.20;;
56171;SDS011;42052;41.634;-0.946;2022-07-06T13:09:57;3.10;;;1.35;;
56171;SDS011;42052;41.634;-0.946;2022-07-06T13:12:23;3.10;;;1.40;;
56171;SDS011;42052;41.634;-0.946;2022-07-06T13:14:49;2.72;;;1.40;;
56171;SDS011;42052;41.634;-0.946;2022-07-06T13:17:15;2.50;;;1.27;;
56171;SDS011;42052;41.634;-0.946;2022-07-06T13:19:41;2.13;;;1.35;;
56171;SDS011;42052;41.634;-0.946;2022-07-06T13:22:07;3.15;;;1.40;;
56171;SDS011;42052;41.634;-0.946;2022-07-06T13:24:33;2.35;;;1.30;;
56171;SDS011;42052;41.634;-0.946;2022-07-06T13:26:59;2.22;;;1.30;;
56171;SDS011;42052;41.634;-0.946;2022-07-06T13:29:26;2.83;;;1.40;;
56171;SDS011;42052;41.634;-0.946;2022-07-06T13:31:52;3.17;;;1.42;;
56171;SDS011;42052;41.634;-0.946;2022-07-06T13:34:18;2.20;;;1.25;;
56171;SDS011;42052;41.634;-0.946;2022-07-06T13:36:44;3.80;;;1.35;;
56171;SDS011;42052;41.634;-0.946;2022-07-06T13:39:10;3.53;;;1.35;;
56171;SDS011;42052;41.634;-0.946;2022-07-06T13:41:36;4.28;;;1.13;;
56171;SDS011;42052;41.634;-0.946;2022-07-06T13:44:02;4.00;;;1.40;;
56171;SDS011;42052;41.634;-0.946;2022-07-06T13:46:29;2.05;;;1.05;;
56171;SDS011;42052;41.634;-0.946;2022-07-06T13:48:56;2.13;;;1.10;;
56171;SDS011;42052;41.634;-0.946;2022-07-06T13:51:24;3.22;;;1.42;;
56171;SDS011;42052;41.634;-0.946;2022-07-06T13:53:52;2.92;;;1.17;;
56171;SDS011;42052;41.634;-0.946;2022-07-06T13:56:18;2.33;;;1.40;;
56171;SDS011;42052;41.634;-0.946;2022-07-06T13:58:45;1.63;;;0.90;;
56171;SDS011;42052;41.634;-0.946;2022-07-06T14:01:11;1.70;;;1.20;;
56171;SDS011;42052;41.634;-0.946;2022-07-06T14:03:37;2.28;;;1.20;;
56171;SDS011;42052;41.634;-0.946;2022-07-06T14:06:04;2.63;;;1.40;;
56171;SDS011;42052;41.634;-0.946;2022-07-06T14:08:34;2.28;;;0.93;;
56171;SDS011;42052;41.634;-0.946;2022-07-06T14:11:00;1.17;;;0.90;;
56171;SDS011;42052;41.634;-0.946;2022-07-06T14:13:27;1.85;;;1.00;;
56171;SDS011;42052;41.634;-0.946;2022-07-06T14:15:53;3.45;;;1.02;;
56171;SDS011;42052;41.634;-0.946;2022-07-06T14:18:19;2.60;;;1.08;;
56171;SDS011;42052;41.634;-0.946;2022-07-06T14:20:48;3.22;;;1.08;;
56171;SDS011;42052;41.634;-0.946;2022-07-06T14:23:15;3.25;;;1.20;;
56171;SDS011;42052;41.634;-0.946;2022-07-06T14:25:41;2.05;;;1.20;;
56171;SDS011;42052;41.634;-0.946;2022-07-06T14:28:08;2.85;;;1.10;;
56171;SDS011;42052;41.634;-0.946;2022-07-06T14:30:34;1.92;;;0.90;;
56171;SDS011;42052;41.634;-0.946;2022-07-06T14:33:04;2.15;;;1.00;;
56171;SDS011;42052;41.634;-0.946;2022-07-06T14:35:38;1.60;;;1.00;;
56171;SDS011;42052;41.634;-0.946;2022-07-06T14:38:15;2.65;;;1.05;;
56171;SDS011;42052;41.634;-0.946;2022-07-06T14:40:42;2.25;;;1.05;;
56171;SDS011;42052;41.634;-0.946;2022-07-06T14:43:08;2.92;;;1.10;;
56171;SDS011;42052;41.634;-0.946;2022-07-06T14:45:35;2.83;;;1.30;;
56171;SDS011;42052;41.634;-0.946;2022-07-06T14:48:01;2.42;;;1.20;;
56171;SDS011;42052;41.634;-0.946;2022-07-06T14:50:27;2.78;;;1.30;;
56171;SDS011;42052;41.634;-0.946;2022-07-06T14:52:53;3.25;;;1.13;;